sensor_id;sensor_type;location;lat;lon;timestamp;P1;durP1;ratioP1;P2;durP2;ratioP2
10461;SDS011;5278;42.656;23.374;2024-02-16T00:00:07;17.83;;;11.27;;
10461;SDS011;5278;42.656;23.374;2024-02-16T00:02:36;15.80;;;11.40;;
10461;SDS011;5278;42.656;23.374;2024-02-16T00:05:03;21.07;;;12.30;;
10461;SDS011;5278;42.656;23.374;2024-02-16T00:07:31;18.20;;;12.33;;
10461;SDS011;5278;42.656;23.374;2024-02-16T00:09:58;20.80;;;12.33;;
10461;SDS011;5278;42.656;23.374;2024-02-16T00:12:24;21.07;;;13.07;;
10461;SDS011;5278;42.656;23.374;2024-02-16T00:14:53;29.17;;;13.53;;
10461;SDS011;5278;42.656;23.374;2024-02-16T00:17:19;21.83;;;13.43;;
10461;SDS011;5278;42.656;23.374;2024-02-16T00:19:47;20.40;;;13.23;;
10461;SDS011;5278;42.656;23.374;2024-02-16T00:22:14;18.67;;;11.40;;
10461;SDS011;5278;42.656;23.374;2024-02-16T00:24:40;17.83;;;11.00;;
10461;SDS011;5278;42.656;23.374;2024-02-16T00:27:07;18.90;;;11.27;;
10461;SDS011;5278;42.656;23.374;2024-02-16T00:29:34;17.37;;;10.33;;
10461;SDS011;5278;42.656;23.374;2024-02-16T00:32:02;17.60;;;12.90;;
10461;SDS011;5278;42.656;23.374;2024-02-16T00:34:28;19.03;;;11.30;;
10461;SDS011;5278;42.656;23.374;2024-02-16T00:36:55;16.80;;;10.67;;
10461;SDS011;5278;42.656;23.374;2024-02-16T00:39:22;15.97;;;10.23;;
10461;SDS011;5278;42.656;23.374;2024-02-16T00:41:50;17.93;;;10.43;;
10461;SDS011;5278;42.656;23.374;2024-02-16T00:44:16;14.37;;;10.57;;
10461;SDS011;5278;42.656;23.374;2024-02-16T00:46:43;15.80;;;11.27;;
10461;SDS011;5278;42.656;23.374;2024-02-16T00:49:11;18.27;;;10.83;;
10461;SDS011;5278;42.656;23.374;2024-02-16T00:51:38;18.50;;;11.53;;
10461;SDS011;5278;42.656;23.374;2024-02-16T00:54:07;17.13;;;11.00;;
10461;SDS011;5278;42.656;23.374;2024-02-16T00:56:34;13.70;;;10.57;;
10461;SDS011;5278;42.656;23.374;2024-02-16T00:59:00;14.77;;;10.43;;
10461;SDS011;5278;42.656;23.374;2024-02-16T01:01:28;16.17;;;10.67;;
10461;SDS011;5278;42.656;23.374;2024-02-16T01:03:54;15.23;;;10.47;;
10461;SDS011;5278;42.656;23.374;2024-02-16T01:06:22;18.47;;;10.73;;
10461;SDS011;5278;42.656;23.374;2024-02-16T01:08:49;18.03;;;11.43;;
10461;SDS011;5278;42.656;23.374;2024-02-16T01:11:16;15.33;;;9.83;;
10461;SDS011;5278;42.656;23.374;2024-02-16T01:13:45;15.60;;;11.07;;
10461;SDS011;5278;42.656;23.374;2024-02-16T01:16:11;15.00;;;9.50;;
10461;SDS011;5278;42.656;23.374;2024-02-16T01:18:39;14.83;;;10.43;;
10461;SDS011;5278;42.656;23.374;2024-02-16T01:21:06;14.70;;;9.97;;
10461;SDS011;5278;42.656;23.374;2024-02-16T01:23:35;14.90;;;10.07;;
10461;SDS011;5278;42.656;23.374;2024-02-16T01:26:02;14.63;;;9.97;;
10461;SDS011;5278;42.656;23.374;2024-02-16T01:28:28;13.23;;;9.43;;
10461;SDS011;5278;42.656;23.374;2024-02-16T01:30:55;15.73;;;10.33;;
10461;SDS011;5278;42.656;23.374;2024-02-16T01:33:22;17.23;;;10.63;;
10461;SDS011;5278;42.656;23.374;2024-02-16T01:35:49;14.53;;;9.77;;
10461;SDS011;5278;42.656;23.374;2024-02-16T01:38:16;15.97;;;10.23;;
10461;SDS011;5278;42.656;23.374;2024-02-16T01:40:44;15.43;;;10.67;;
10461;SDS011;5278;42.656;23.374;2024-02-16T01:43:10;16.83;;;10.77;;
10461;SDS011;5278;42.656;23.374;2024-02-16T01:45:37;14.63;;;10.97;;
10461;SDS011;5278;42.656;23.374;2024-02-16T01:48:04;17.90;;;11.33;;
10461;SDS011;5278;42.656;23.374;2024-02-16T01:50:31;16.30;;;11.17;;
10461;SDS011;5278;42.656;23.374;2024-02-16T01:52:59;17.87;;;11.80;;
10461;SDS011;5278;42.656;23.374;2024-02-16T01:55:25;16.17;;;10.77;;
10461;SDS011;5278;42.656;23.374;2024-02-16T01:57:54;18.57;;;11.40;;
10461;SDS011;5278;42.656;23.374;2024-02-16T02:00:21;18.80;;;11.90;;
10461;SDS011;5278;42.656;23.374;2024-02-16T02:02:48;18.83;;;11.87;;
10461;SDS011;5278;42.656;23.374;2024-02-16T02:05:15;21.23;;;11.77;;
10461;SDS011;5278;42.656;23.374;2024-02-16T02:07:42;17.53;;;11.13;;
10461;SDS011;5278;42.656;23.374;2024-02-16T02:10:09;14.73;;;11.30;;
10461;SDS011;5278;42.656;23.374;2024-02-16T02:12:37;17.93;;;10.73;;
10461;SDS011;5278;42.656;23.374;2024-02-16T02:15:13;18.77;;;12.10;;
10461;SDS011;5278;42.656;23.374;2024-02-16T02:17:40;18.03;;;10.73;;
10461;SDS011;5278;42.656;23.374;2024-02-16T02:20:07;19.43;;;11.30;;
10461;SDS011;5278;42.656;23.374;2024-02-16T02:22:37;16.67;;;11.10;;
10461;SDS011;5278;42.656;23.374;2024-02-16T02:25:04;16.57;;;10.70;;
10461;SDS011;5278;42.656;23.374;2024-02-16T02:27:31;16.30;;;10.80;;
10461;SDS011;5278;42.656;23.374;2024-02-16T02:29:58;17.17;;;11.70;;
10461;SDS011;5278;42.656;23.374;2024-02-16T02:32:24;16.23;;;10.37;;
10461;SDS011;5278;42.656;23.374;2024-02-16T02:34:51;14.30;;;9.63;;
10461;SDS011;5278;42.656;23.374;2024-02-16T02:37:18;13.63;;;9.40;;
10461;SDS011;5278;42.656;23.374;2024-02-16T02:39:46;16.17;;;9.23;;
10461;SDS011;5278;42.656;23.374;2024-02-16T02:42:12;13.37;;;9.20;;
10461;SDS011;5278;42.656;23.374;2024-02-16T02:44:39;13.67;;;8.87;;
10461;SDS011;5278;42.656;23.374;2024-02-16T02:47:07;11.67;;;8.17;;
10461;SDS011;5278;42.656;23.374;2024-02-16T02:49:34;10.20;;;7.77;;
10461;SDS011;5278;42.656;23.374;2024-02-16T02:52:00;15.17;;;8.27;;
10461;SDS011;5278;42.656;23.374;2024-02-16T02:54:27;12.10;;;8.77;;
10461;SDS011;5278;42.656;23.374;2024-02-16T02:56:56;14.73;;;8.60;;
10461;SDS011;5278;42.656;23.374;2024-02-16T02:59:22;11.53;;;8.60;;
10461;SDS011;5278;42.656;23.374;2024-02-16T03:01:49;12.87;;;8.20;;
10461;SDS011;5278;42.656;23.374;2024-02-16T03:04:16;10.13;;;7.10;;
10461;SDS011;5278;42.656;23.374;2024-02-16T03:06:42;13.17;;;7.93;;
10461;SDS011;5278;42.656;23.374;2024-02-16T03:09:10;19.90;;;7.47;;
10461;SDS011;5278;42.656;23.374;2024-02-16T03:11:37;10.37;;;7.33;;
10461;SDS011;5278;42.656;23.374;2024-02-16T03:14:05;12.33;;;7.47;;
10461;SDS011;5278;42.656;23.374;2024-02-16T03:16:32;11.43;;;8.07;;
10461;SDS011;5278;42.656;23.374;2024-02-16T03:18:59;20.27;;;8.37;;
10461;SDS011;5278;42.656;23.374;2024-02-16T03:21:26;14.30;;;8.60;;
10461;SDS011;5278;42.656;23.374;2024-02-16T03:23:52;15.93;;;8.90;;
10461;SDS011;5278;42.656;23.374;2024-02-16T03:26:19;16.10;;;9.00;;
10461;SDS011;5278;42.656;23.374;2024-02-16T03:28:46;13.90;;;8.60;;
10461;SDS011;5278;42.656;23.374;2024-02-16T03:31:19;12.63;;;7.80;;
10461;SDS011;5278;42.656;23.374;2024-02-16T03:33:46;14.50;;;8.50;;
10461;SDS011;5278;42.656;23.374;2024-02-16T03:36:13;13.23;;;8.20;;
10461;SDS011;5278;42.656;23.374;2024-02-16T03:38:43;13.30;;;8.27;;
10461;SDS011;5278;42.656;23.374;2024-02-16T03:41:12;11.67;;;8.20;;
10461;SDS011;5278;42.656;23.374;2024-02-16T03:43:39;10.07;;;7.90;;
10461;SDS011;5278;42.656;23.374;2024-02-16T03:46:06;10.77;;;7.50;;
10461;SDS011;5278;42.656;23.374;2024-02-16T03:48:34;12.23;;;7.47;;
10461;SDS011;5278;42.656;23.374;2024-02-16T03:51:01;20.97;;;11.40;;
10461;SDS011;5278;42.656;23.374;2024-02-16T03:53:29;17.00;;;10.77;;
10461;SDS011;5278;42.656;23.374;2024-02-16T03:55:55;13.50;;;8.77;;
10461;SDS011;5278;42.656;23.374;2024-02-16T03:58:22;10.03;;;7.17;;
10461;SDS011;5278;42.656;23.374;2024-02-16T04:00:49;9.87;;;7.20;;
10461;SDS011;5278;42.656;23.374;2024-02-16T04:03:15;8.23;;;6.70;;
10461;SDS011;5278;42.656;23.374;2024-02-16T04:05:44;9.80;;;6.70;;
10461;SDS011;5278;42.656;23.374;2024-02-16T04:08:11;10.03;;;5.70;;
10461;SDS011;5278;42.656;23.374;2024-02-16T04:10:38;9.40;;;6.63;;
10461;SDS011;5278;42.656;23.374;2024-02-16T04:13:05;9.77;;;7.00;;
10461;SDS011;5278;42.656;23.374;2024-02-16T04:15:31;10.67;;;7.43;;
10461;SDS011;5278;42.656;23.374;2024-02-16T04:17:58;11.23;;;7.20;;
10461;SDS011;5278;42.656;23.374;2024-02-16T04:20:24;10.57;;;8.37;;
10461;SDS011;5278;42.656;23.374;2024-02-16T04:22:52;13.43;;;9.37;;
10461;SDS011;5278;42.656;23.374;2024-02-16T04:25:19;14.27;;;8.87;;
10461;SDS011;5278;42.656;23.374;2024-02-16T04:27:46;16.90;;;9.17;;
10461;SDS011;5278;42.656;23.374;2024-02-16T04:30:13;14.53;;;9.13;;
10461;SDS011;5278;42.656;23.374;2024-02-16T04:32:39;15.47;;;9.93;;
10461;SDS011;5278;42.656;23.374;2024-02-16T04:35:06;19.37;;;11.17;;
10461;SDS011;5278;42.656;23.374;2024-02-16T04:37:36;16.87;;;10.53;;
10461;SDS011;5278;42.656;23.374;2024-02-16T04:40:05;19.13;;;9.67;;
10461;SDS011;5278;42.656;23.374;2024-02-16T04:42:33;17.33;;;9.83;;
10461;SDS011;5278;42.656;23.374;2024-02-16T04:44:59;17.67;;;10.47;;
10461;SDS011;5278;42.656;23.374;2024-02-16T04:47:26;15.63;;;9.17;;
10461;SDS011;5278;42.656;23.374;2024-02-16T04:49:53;15.63;;;9.33;;
10461;SDS011;5278;42.656;23.374;2024-02-16T04:52:20;14.63;;;9.60;;
10461;SDS011;5278;42.656;23.374;2024-02-16T04:54:47;16.47;;;9.57;;
10461;SDS011;5278;42.656;23.374;2024-02-16T04:57:15;16.47;;;9.73;;
10461;SDS011;5278;42.656;23.374;2024-02-16T04:59:41;19.73;;;9.40;;
10461;SDS011;5278;42.656;23.374;2024-02-16T05:02:08;18.03;;;9.23;;
10461;SDS011;5278;42.656;23.374;2024-02-16T05:04:35;18.03;;;9.30;;
10461;SDS011;5278;42.656;23.374;2024-02-16T05:07:02;15.20;;;9.37;;
10461;SDS011;5278;42.656;23.374;2024-02-16T05:09:31;14.23;;;9.33;;
10461;SDS011;5278;42.656;23.374;2024-02-16T05:11:58;18.30;;;9.37;;
10461;SDS011;5278;42.656;23.374;2024-02-16T05:14:26;14.60;;;10.13;;
10461;SDS011;5278;42.656;23.374;2024-02-16T05:16:53;17.17;;;9.10;;
10461;SDS011;5278;42.656;23.374;2024-02-16T05:19:20;15.40;;;9.60;;
10461;SDS011;5278;42.656;23.374;2024-02-16T05:21:46;18.23;;;10.07;;
10461;SDS011;5278;42.656;23.374;2024-02-16T05:24:13;22.07;;;10.30;;
10461;SDS011;5278;42.656;23.374;2024-02-16T05:26:40;17.20;;;10.67;;
10461;SDS011;5278;42.656;23.374;2024-02-16T05:29:06;19.53;;;10.00;;
10461;SDS011;5278;42.656;23.374;2024-02-16T05:31:34;19.73;;;10.63;;
10461;SDS011;5278;42.656;23.374;2024-02-16T05:34:01;20.67;;;11.43;;
10461;SDS011;5278;42.656;23.374;2024-02-16T05:36:28;23.17;;;12.07;;
10461;SDS011;5278;42.656;23.374;2024-02-16T05:39:00;23.97;;;13.97;;
10461;SDS011;5278;42.656;23.374;2024-02-16T05:41:45;24.23;;;13.43;;
10461;SDS011;5278;42.656;23.374;2024-02-16T05:44:11;32.40;;;14.93;;
10461;SDS011;5278;42.656;23.374;2024-02-16T05:46:40;26.10;;;13.23;;
10461;SDS011;5278;42.656;23.374;2024-02-16T05:49:06;26.37;;;15.17;;
10461;SDS011;5278;42.656;23.374;2024-02-16T05:51:35;27.23;;;15.00;;
10461;SDS011;5278;42.656;23.374;2024-02-16T05:54:02;26.70;;;15.30;;
10461;SDS011;5278;42.656;23.374;2024-02-16T05:56:28;26.37;;;14.87;;
10461;SDS011;5278;42.656;23.374;2024-02-16T05:58:58;29.67;;;15.20;;
10461;SDS011;5278;42.656;23.374;2024-02-16T06:01:25;28.83;;;16.53;;
10461;SDS011;5278;42.656;23.374;2024-02-16T06:03:54;29.37;;;17.33;;
10461;SDS011;5278;42.656;23.374;2024-02-16T06:06:20;26.73;;;15.43;;
10461;SDS011;5278;42.656;23.374;2024-02-16T06:08:47;29.63;;;18.07;;
10461;SDS011;5278;42.656;23.374;2024-02-16T06:11:14;25.00;;;15.50;;
10461;SDS011;5278;42.656;23.374;2024-02-16T06:13:41;25.50;;;16.23;;
10461;SDS011;5278;42.656;23.374;2024-02-16T06:16:08;22.13;;;15.53;;
10461;SDS011;5278;42.656;23.374;2024-02-16T06:18:35;27.00;;;15.97;;
10461;SDS011;5278;42.656;23.374;2024-02-16T06:21:03;28.93;;;16.60;;
10461;SDS011;5278;42.656;23.374;2024-02-16T06:23:30;27.73;;;17.77;;
10461;SDS011;5278;42.656;23.374;2024-02-16T06:25:57;26.80;;;17.03;;
10461;SDS011;5278;42.656;23.374;2024-02-16T06:28:24;28.57;;;17.07;;
10461;SDS011;5278;42.656;23.374;2024-02-16T06:30:50;22.83;;;15.97;;
10461;SDS011;5278;42.656;23.374;2024-02-16T06:33:17;29.97;;;18.50;;
10461;SDS011;5278;42.656;23.374;2024-02-16T06:35:44;22.03;;;15.37;;
10461;SDS011;5278;42.656;23.374;2024-02-16T06:38:14;28.87;;;15.63;;
10461;SDS011;5278;42.656;23.374;2024-02-16T06:40:41;21.50;;;14.30;;
10461;SDS011;5278;42.656;23.374;2024-02-16T06:43:08;23.80;;;15.60;;
10461;SDS011;5278;42.656;23.374;2024-02-16T06:45:34;24.47;;;14.70;;
10461;SDS011;5278;42.656;23.374;2024-02-16T06:48:01;25.07;;;14.57;;
10461;SDS011;5278;42.656;23.374;2024-02-16T06:50:28;23.70;;;13.77;;
10461;SDS011;5278;42.656;23.374;2024-02-16T06:52:55;30.60;;;17.27;;
10461;SDS011;5278;42.656;23.374;2024-02-16T06:55:23;27.07;;;14.47;;
10461;SDS011;5278;42.656;23.374;2024-02-16T06:57:49;28.30;;;16.27;;
10461;SDS011;5278;42.656;23.374;2024-02-16T07:00:16;28.67;;;14.70;;
10461;SDS011;5278;42.656;23.374;2024-02-16T07:02:45;29.20;;;16.60;;
10461;SDS011;5278;42.656;23.374;2024-02-16T07:05:11;28.83;;;16.83;;
10461;SDS011;5278;42.656;23.374;2024-02-16T07:07:38;21.03;;;14.13;;
10461;SDS011;5278;42.656;23.374;2024-02-16T07:10:06;25.33;;;14.23;;
10461;SDS011;5278;42.656;23.374;2024-02-16T07:12:39;23.37;;;14.40;;
10461;SDS011;5278;42.656;23.374;2024-02-16T07:15:06;20.60;;;13.30;;
10461;SDS011;5278;42.656;23.374;2024-02-16T07:17:34;24.60;;;14.87;;
10461;SDS011;5278;42.656;23.374;2024-02-16T07:20:02;24.77;;;15.03;;
10461;SDS011;5278;42.656;23.374;2024-02-16T07:22:29;22.23;;;14.40;;
10461;SDS011;5278;42.656;23.374;2024-02-16T07:24:57;16.57;;;13.43;;
10461;SDS011;5278;42.656;23.374;2024-02-16T07:27:25;21.40;;;12.40;;
10461;SDS011;5278;42.656;23.374;2024-02-16T07:29:53;19.00;;;12.10;;
10461;SDS011;5278;42.656;23.374;2024-02-16T07:32:20;17.27;;;12.13;;
10461;SDS011;5278;42.656;23.374;2024-02-16T07:34:47;16.80;;;11.33;;
10461;SDS011;5278;42.656;23.374;2024-02-16T07:37:13;17.97;;;11.63;;
10461;SDS011;5278;42.656;23.374;2024-02-16T07:39:41;15.33;;;12.73;;
10461;SDS011;5278;42.656;23.374;2024-02-16T07:42:07;16.20;;;11.67;;
10461;SDS011;5278;42.656;23.374;2024-02-16T07:44:35;20.30;;;13.13;;
10461;SDS011;5278;42.656;23.374;2024-02-16T07:47:03;14.97;;;11.47;;
10461;SDS011;5278;42.656;23.374;2024-02-16T07:49:30;21.00;;;11.60;;
10461;SDS011;5278;42.656;23.374;2024-02-16T07:51:56;13.87;;;10.80;;
10461;SDS011;5278;42.656;23.374;2024-02-16T07:54:23;19.47;;;12.33;;
10461;SDS011;5278;42.656;23.374;2024-02-16T07:56:50;18.03;;;10.53;;
10461;SDS011;5278;42.656;23.374;2024-02-16T07:59:17;12.13;;;10.30;;
10461;SDS011;5278;42.656;23.374;2024-02-16T08:01:44;14.13;;;10.30;;
10461;SDS011;5278;42.656;23.374;2024-02-16T08:04:12;16.00;;;10.90;;
10461;SDS011;5278;42.656;23.374;2024-02-16T08:06:38;20.67;;;10.90;;
10461;SDS011;5278;42.656;23.374;2024-02-16T08:09:05;12.20;;;10.50;;
10461;SDS011;5278;42.656;23.374;2024-02-16T08:11:32;14.63;;;10.03;;
10461;SDS011;5278;42.656;23.374;2024-02-16T08:13:59;13.87;;;10.70;;
10461;SDS011;5278;42.656;23.374;2024-02-16T08:16:26;13.93;;;9.87;;
10461;SDS011;5278;42.656;23.374;2024-02-16T08:18:52;11.27;;;9.77;;
10461;SDS011;5278;42.656;23.374;2024-02-16T08:21:20;13.20;;;9.73;;
10461;SDS011;5278;42.656;23.374;2024-02-16T08:23:47;14.93;;;10.80;;
10461;SDS011;5278;42.656;23.374;2024-02-16T08:26:14;16.33;;;11.70;;
10461;SDS011;5278;42.656;23.374;2024-02-16T08:28:43;16.10;;;12.13;;
10461;SDS011;5278;42.656;23.374;2024-02-16T08:31:10;19.60;;;12.20;;
10461;SDS011;5278;42.656;23.374;2024-02-16T08:33:36;18.33;;;12.10;;
10461;SDS011;5278;42.656;23.374;2024-02-16T08:36:04;15.87;;;13.07;;
10461;SDS011;5278;42.656;23.374;2024-02-16T08:38:35;23.30;;;14.47;;
10461;SDS011;5278;42.656;23.374;2024-02-16T08:41:02;43.43;;;17.33;;
10461;SDS011;5278;42.656;23.374;2024-02-16T08:43:29;22.60;;;14.23;;
10461;SDS011;5278;42.656;23.374;2024-02-16T08:45:56;27.00;;;16.13;;
10461;SDS011;5278;42.656;23.374;2024-02-16T08:48:23;21.40;;;16.97;;
10461;SDS011;5278;42.656;23.374;2024-02-16T08:50:50;24.70;;;17.07;;
10461;SDS011;5278;42.656;23.374;2024-02-16T08:53:17;23.77;;;16.67;;
10461;SDS011;5278;42.656;23.374;2024-02-16T08:55:45;23.20;;;17.90;;
10461;SDS011;5278;42.656;23.374;2024-02-16T08:58:12;24.00;;;17.23;;
10461;SDS011;5278;42.656;23.374;2024-02-16T09:00:38;23.27;;;16.93;;
10461;SDS011;5278;42.656;23.374;2024-02-16T09:03:05;24.10;;;17.23;;
10461;SDS011;5278;42.656;23.374;2024-02-16T09:05:33;24.23;;;17.27;;
10461;SDS011;5278;42.656;23.374;2024-02-16T09:08:00;21.17;;;16.83;;
10461;SDS011;5278;42.656;23.374;2024-02-16T09:10:28;21.67;;;17.50;;
10461;SDS011;5278;42.656;23.374;2024-02-16T09:12:56;25.37;;;16.73;;
10461;SDS011;5278;42.656;23.374;2024-02-16T09:15:23;22.33;;;16.60;;
10461;SDS011;5278;42.656;23.374;2024-02-16T09:17:49;23.10;;;15.37;;
10461;SDS011;5278;42.656;23.374;2024-02-16T09:20:16;22.67;;;15.27;;
10461;SDS011;5278;42.656;23.374;2024-02-16T09:22:47;22.83;;;15.50;;
10461;SDS011;5278;42.656;23.374;2024-02-16T09:25:14;21.63;;;16.50;;
10461;SDS011;5278;42.656;23.374;2024-02-16T09:27:41;19.37;;;15.10;;
10461;SDS011;5278;42.656;23.374;2024-02-16T09:30:12;21.10;;;14.70;;
10461;SDS011;5278;42.656;23.374;2024-02-16T09:32:39;15.60;;;13.00;;
10461;SDS011;5278;42.656;23.374;2024-02-16T09:35:06;16.10;;;11.90;;
10461;SDS011;5278;42.656;23.374;2024-02-16T09:37:33;16.33;;;12.53;;
10461;SDS011;5278;42.656;23.374;2024-02-16T09:40:00;10.17;;;8.33;;
10461;SDS011;5278;42.656;23.374;2024-02-16T09:42:29;10.40;;;6.67;;
10461;SDS011;5278;42.656;23.374;2024-02-16T09:44:55;5.60;;;4.60;;
10461;SDS011;5278;42.656;23.374;2024-02-16T09:47:23;7.30;;;5.10;;
10461;SDS011;5278;42.656;23.374;2024-02-16T09:49:53;9.50;;;7.30;;
10461;SDS011;5278;42.656;23.374;2024-02-16T09:52:20;6.63;;;5.90;;
10461;SDS011;5278;42.656;23.374;2024-02-16T09:54:48;10.20;;;7.23;;
10461;SDS011;5278;42.656;23.374;2024-02-16T09:57:16;6.13;;;5.53;;
10461;SDS011;5278;42.656;23.374;2024-02-16T09:59:43;8.13;;;7.33;;
10461;SDS011;5278;42.656;23.374;2024-02-16T10:02:10;8.50;;;6.77;;
10461;SDS011;5278;42.656;23.374;2024-02-16T10:04:38;6.50;;;5.63;;
10461;SDS011;5278;42.656;23.374;2024-02-16T10:07:05;34.47;;;20.40;;
10461;SDS011;5278;42.656;23.374;2024-02-16T10:09:32;4.53;;;4.13;;
10461;SDS011;5278;42.656;23.374;2024-02-16T10:11:58;5.30;;;3.50;;
10461;SDS011;5278;42.656;23.374;2024-02-16T10:14:25;5.03;;;4.50;;
10461;SDS011;5278;42.656;23.374;2024-02-16T10:16:59;5.57;;;5.07;;
10461;SDS011;5278;42.656;23.374;2024-02-16T10:19:28;7.93;;;5.73;;
10461;SDS011;5278;42.656;23.374;2024-02-16T10:22:06;5.83;;;5.33;;
10461;SDS011;5278;42.656;23.374;2024-02-16T10:24:33;6.07;;;5.03;;
10461;SDS011;5278;42.656;23.374;2024-02-16T10:27:00;7.83;;;6.27;;
10461;SDS011;5278;42.656;23.374;2024-02-16T10:29:27;6.53;;;5.93;;
10461;SDS011;5278;42.656;23.374;2024-02-16T10:31:54;7.93;;;4.90;;
10461;SDS011;5278;42.656;23.374;2024-02-16T10:34:20;7.43;;;5.90;;
10461;SDS011;5278;42.656;23.374;2024-02-16T10:36:50;7.83;;;6.60;;
10461;SDS011;5278;42.656;23.374;2024-02-16T10:39:19;9.27;;;6.87;;
10461;SDS011;5278;42.656;23.374;2024-02-16T10:41:46;6.10;;;5.60;;
10461;SDS011;5278;42.656;23.374;2024-02-16T10:44:14;6.70;;;5.77;;
10461;SDS011;5278;42.656;23.374;2024-02-16T10:46:41;8.20;;;6.87;;
10461;SDS011;5278;42.656;23.374;2024-02-16T10:49:08;8.10;;;5.47;;
10461;SDS011;5278;42.656;23.374;2024-02-16T10:51:36;9.30;;;8.37;;
10461;SDS011;5278;42.656;23.374;2024-02-16T10:54:06;9.67;;;6.33;;
10461;SDS011;5278;42.656;23.374;2024-02-16T10:56:36;5.90;;;5.37;;
10461;SDS011;5278;42.656;23.374;2024-02-16T10:59:03;6.10;;;5.50;;
10461;SDS011;5278;42.656;23.374;2024-02-16T11:01:32;7.03;;;6.33;;
10461;SDS011;5278;42.656;23.374;2024-02-16T11:04:00;6.60;;;5.83;;
10461;SDS011;5278;42.656;23.374;2024-02-16T11:06:28;8.37;;;6.90;;
10461;SDS011;5278;42.656;23.374;2024-02-16T11:09:00;17.93;;;13.57;;
10461;SDS011;5278;42.656;23.374;2024-02-16T11:11:30;9.00;;;6.80;;
10461;SDS011;5278;42.656;23.374;2024-02-16T11:13:58;6.03;;;5.40;;
10461;SDS011;5278;42.656;23.374;2024-02-16T11:16:25;8.40;;;7.57;;
10461;SDS011;5278;42.656;23.374;2024-02-16T11:18:52;10.07;;;6.13;;
10461;SDS011;5278;42.656;23.374;2024-02-16T11:21:18;9.27;;;6.60;;
10461;SDS011;5278;42.656;23.374;2024-02-16T11:23:45;7.83;;;5.87;;
10461;SDS011;5278;42.656;23.374;2024-02-16T11:26:13;8.50;;;5.80;;
10461;SDS011;5278;42.656;23.374;2024-02-16T11:28:41;6.03;;;5.43;;
10461;SDS011;5278;42.656;23.374;2024-02-16T11:31:09;6.43;;;5.63;;
10461;SDS011;5278;42.656;23.374;2024-02-16T11:33:42;8.17;;;5.93;;
10461;SDS011;5278;42.656;23.374;2024-02-16T11:36:10;12.20;;;9.20;;
10461;SDS011;5278;42.656;23.374;2024-02-16T11:38:37;6.57;;;5.60;;
10461;SDS011;5278;42.656;23.374;2024-02-16T11:41:05;7.00;;;5.23;;
10461;SDS011;5278;42.656;23.374;2024-02-16T11:43:33;12.47;;;8.07;;
10461;SDS011;5278;42.656;23.374;2024-02-16T11:45:59;4.80;;;4.40;;
10461;SDS011;5278;42.656;23.374;2024-02-16T11:48:39;5.67;;;5.17;;
10461;SDS011;5278;42.656;23.374;2024-02-16T11:51:06;14.83;;;10.63;;
10461;SDS011;5278;42.656;23.374;2024-02-16T11:53:33;7.87;;;6.20;;
10461;SDS011;5278;42.656;23.374;2024-02-16T11:56:00;8.70;;;6.20;;
10461;SDS011;5278;42.656;23.374;2024-02-16T11:58:27;4.93;;;4.40;;
10461;SDS011;5278;42.656;23.374;2024-02-16T12:00:56;4.37;;;3.97;;
10461;SDS011;5278;42.656;23.374;2024-02-16T12:03:26;4.80;;;3.93;;
10461;SDS011;5278;42.656;23.374;2024-02-16T12:05:53;4.50;;;3.83;;
10461;SDS011;5278;42.656;23.374;2024-02-16T12:08:21;6.33;;;5.00;;
10461;SDS011;5278;42.656;23.374;2024-02-16T12:10:49;7.97;;;5.57;;
10461;SDS011;5278;42.656;23.374;2024-02-16T12:13:17;6.47;;;5.10;;
10461;SDS011;5278;42.656;23.374;2024-02-16T12:15:44;5.30;;;3.90;;
10461;SDS011;5278;42.656;23.374;2024-02-16T12:18:18;10.40;;;5.50;;
10461;SDS011;5278;42.656;23.374;2024-02-16T12:20:57;5.27;;;4.77;;
10461;SDS011;5278;42.656;23.374;2024-02-16T12:23:24;7.97;;;5.40;;
10461;SDS011;5278;42.656;23.374;2024-02-16T12:25:51;5.47;;;4.90;;
10461;SDS011;5278;42.656;23.374;2024-02-16T12:28:18;5.70;;;4.33;;
10461;SDS011;5278;42.656;23.374;2024-02-16T12:30:45;6.10;;;5.50;;
10461;SDS011;5278;42.656;23.374;2024-02-16T12:33:12;7.13;;;5.40;;
10461;SDS011;5278;42.656;23.374;2024-02-16T12:35:38;6.17;;;5.53;;
10461;SDS011;5278;42.656;23.374;2024-02-16T12:38:06;6.63;;;5.57;;
10461;SDS011;5278;42.656;23.374;2024-02-16T12:40:33;5.47;;;5.00;;
10461;SDS011;5278;42.656;23.374;2024-02-16T12:43:00;7.20;;;5.10;;
10461;SDS011;5278;42.656;23.374;2024-02-16T12:45:26;7.00;;;5.50;;
10461;SDS011;5278;42.656;23.374;2024-02-16T12:47:53;7.13;;;5.70;;
10461;SDS011;5278;42.656;23.374;2024-02-16T12:50:20;5.77;;;5.00;;
10461;SDS011;5278;42.656;23.374;2024-02-16T12:52:46;7.83;;;5.30;;
10461;SDS011;5278;42.656;23.374;2024-02-16T12:55:14;9.57;;;6.37;;
10461;SDS011;5278;42.656;23.374;2024-02-16T12:57:41;6.87;;;5.37;;
10461;SDS011;5278;42.656;23.374;2024-02-16T13:00:08;6.83;;;5.00;;
10461;SDS011;5278;42.656;23.374;2024-02-16T13:02:36;7.70;;;5.17;;
10461;SDS011;5278;42.656;23.374;2024-02-16T13:05:03;8.67;;;6.20;;
10461;SDS011;5278;42.656;23.374;2024-02-16T13:07:30;6.53;;;5.17;;
10461;SDS011;5278;42.656;23.374;2024-02-16T13:09:57;9.03;;;6.00;;
10461;SDS011;5278;42.656;23.374;2024-02-16T13:12:25;8.17;;;6.23;;
10461;SDS011;5278;42.656;23.374;2024-02-16T13:14:52;8.87;;;6.07;;
10461;SDS011;5278;42.656;23.374;2024-02-16T13:17:19;6.97;;;5.40;;
10461;SDS011;5278;42.656;23.374;2024-02-16T13:19:46;8.60;;;6.03;;
10461;SDS011;5278;42.656;23.374;2024-02-16T13:22:12;6.67;;;5.43;;
10461;SDS011;5278;42.656;23.374;2024-02-16T13:24:39;8.10;;;6.10;;
10461;SDS011;5278;42.656;23.374;2024-02-16T13:27:06;8.67;;;6.03;;
10461;SDS011;5278;42.656;23.374;2024-02-16T13:29:35;7.93;;;5.67;;
10461;SDS011;5278;42.656;23.374;2024-02-16T13:32:02;8.97;;;6.53;;
10461;SDS011;5278;42.656;23.374;2024-02-16T13:34:29;8.90;;;5.20;;
10461;SDS011;5278;42.656;23.374;2024-02-16T13:36:55;6.87;;;5.97;;
10461;SDS011;5278;42.656;23.374;2024-02-16T13:39:22;9.93;;;5.63;;
10461;SDS011;5278;42.656;23.374;2024-02-16T13:41:52;7.23;;;5.37;;
10461;SDS011;5278;42.656;23.374;2024-02-16T13:44:19;6.77;;;5.47;;
10461;SDS011;5278;42.656;23.374;2024-02-16T13:46:48;7.60;;;5.87;;
10461;SDS011;5278;42.656;23.374;2024-02-16T13:49:14;6.80;;;5.30;;
10461;SDS011;5278;42.656;23.374;2024-02-16T13:51:41;6.50;;;5.50;;
10461;SDS011;5278;42.656;23.374;2024-02-16T13:54:08;5.33;;;4.80;;
10461;SDS011;5278;42.656;23.374;2024-02-16T13:56:35;7.17;;;5.00;;
10461;SDS011;5278;42.656;23.374;2024-02-16T13:59:03;8.80;;;5.57;;
10461;SDS011;5278;42.656;23.374;2024-02-16T14:01:32;6.73;;;5.20;;
10461;SDS011;5278;42.656;23.374;2024-02-16T14:04:00;7.67;;;5.10;;
10461;SDS011;5278;42.656;23.374;2024-02-16T14:06:28;7.70;;;5.43;;
10461;SDS011;5278;42.656;23.374;2024-02-16T14:08:55;6.60;;;5.67;;
10461;SDS011;5278;42.656;23.374;2024-02-16T14:11:22;6.37;;;4.97;;
10461;SDS011;5278;42.656;23.374;2024-02-16T14:13:49;6.37;;;4.90;;
10461;SDS011;5278;42.656;23.374;2024-02-16T14:16:16;8.17;;;5.17;;
10461;SDS011;5278;42.656;23.374;2024-02-16T14:18:43;5.27;;;4.77;;
10461;SDS011;5278;42.656;23.374;2024-02-16T14:21:11;6.57;;;4.90;;
10461;SDS011;5278;42.656;23.374;2024-02-16T14:23:37;5.90;;;4.30;;
10461;SDS011;5278;42.656;23.374;2024-02-16T14:26:04;8.13;;;4.63;;
10461;SDS011;5278;42.656;23.374;2024-02-16T14:28:31;7.13;;;4.80;;
10461;SDS011;5278;42.656;23.374;2024-02-16T14:30:57;5.23;;;4.43;;
10461;SDS011;5278;42.656;23.374;2024-02-16T14:33:24;6.73;;;4.20;;